Time;durP1;ratioP1;P1;durP2;ratioP2;P2;SDS_P1;SDS_P2;PMS_P1;PMS_P2;Temp;Humidity;BMP_temperature;BMP_pressure;BME280_temperature;BME280_humidity;BME280_pressure;Samples;Min_cycle;Max_cycle;Signal;HPM_P1;HPM_P2
2021/04/18 00:01:38;;;;;;;16.40;8.20;;;;;;;3.86;88.67;102748.38;5038557;28;20067;-74
2021/04/18 00:04:05;;;;;;;15.10;6.72;;;;;;;3.83;88.20;102743.91;5042277;28;20355;-74
2021/04/18 00:06:34;;;;;;;19.05;7.55;;;;;;;3.84;88.41;102744.81;5041144;28;20254;-75
2021/04/18 00:09:01;;;;;;;20.45;8.43;;;;;;;3.83;88.78;102740.38;5043227;28;20068;-75
2021/04/18 00:11:30;;;;;;;16.48;6.70;;;;;;;3.80;88.14;102735.00;5039910;28;20049;-74
2021/04/18 00:13:57;;;;;;;14.60;7.00;;;;;;;3.74;88.17;102731.34;5041181;28;20061;-72
2021/04/18 00:16:25;;;;;;;19.48;7.90;;;;;;;3.76;88.60;102736.66;5042727;28;20580;-73
2021/04/18 00:18:52;;;;;;;18.95;7.53;;;;;;;3.72;88.75;102729.53;5058072;28;20096;-71
2021/04/18 00:21:19;;;;;;;21.40;7.57;;;;;;;3.68;88.61;102725.03;5040014;28;20076;-71
2021/04/18 00:23:47;;;;;;;20.13;7.95;;;;;;;3.64;89.19;102721.38;5044850;28;20067;-71
2021/04/18 00:26:14;;;;;;;20.58;7.90;;;;;;;3.61;88.68;102715.13;5041574;28;20061;-72
2021/04/18 00:28:41;;;;;;;17.88;7.07;;;;;;;3.56;88.04;102715.03;5038895;28;20452;-72
2021/04/18 00:31:07;;;;;;;16.52;8.45;;;;;;;3.53;88.37;102710.56;5042385;28;20362;-72
2021/04/18 00:33:35;;;;;;;17.63;9.27;;;;;;;3.51;88.65;102709.63;5040941;28;20057;-72
2021/04/18 00:36:03;;;;;;;19.25;8.30;;;;;;;3.47;89.18;102712.13;5041513;28;20099;-75
2021/04/18 00:38:29;;;;;;;20.67;8.73;;;;;;;3.45;88.94;102709.44;5038624;28;20144;-74
2021/04/18 00:40:57;;;;;;;20.55;8.10;;;;;;;3.41;88.36;102715.50;5039736;28;20088;-73
2021/04/18 00:43:25;;;;;;;15.60;6.82;;;;;;;3.34;87.65;102705.63;5054881;28;20439;-72
2021/04/18 00:45:52;;;;;;;14.70;5.82;;;;;;;3.30;87.79;102703.75;5042398;28;20057;-71
2021/04/18 00:48:18;;;;;;;18.77;8.05;;;;;;;3.27;88.35;102698.38;5040824;28;20349;-72
2021/04/18 00:50:45;;;;;;;15.45;7.07;;;;;;;3.24;88.85;102698.31;5041834;28;20068;-71
2021/04/18 00:53:12;;;;;;;15.27;6.97;;;;;;;3.24;89.63;102695.69;5042138;28;20560;-72
2021/04/18 00:55:40;;;;;;;22.23;8.15;;;;;;;3.22;89.07;102692.09;5039670;28;20063;-72
2021/04/18 00:58:10;;;;;;;20.48;9.20;;;;;;;3.20;89.96;102688.50;5038746;28;20056;-72
2021/04/18 01:00:38;;;;;;;24.92;8.95;;;;;;;3.15;89.10;102691.94;5040552;28;20064;-71
2021/04/18 01:03:07;;;;;;;15.85;7.43;;;;;;;3.13;89.03;102682.16;5037400;28;20061;-72
2021/04/18 01:05:34;;;;;;;16.80;7.97;;;;;;;3.11;89.36;102689.16;5043638;28;20053;-72
2021/04/18 01:08:01;;;;;;;19.48;8.52;;;;;;;3.10;89.79;102685.63;5039975;28;20053;-72
2021/04/18 01:10:29;;;;;;;18.80;8.25;;;;;;;3.05;89.37;102681.97;5040163;28;20057;-72
2021/04/18 01:12:56;;;;;;;20.88;8.95;;;;;;;3.02;89.63;102684.50;5040590;28;20054;-72
2021/04/18 01:15:23;;;;;;;15.30;7.40;;;;;;;2.99;89.83;102684.41;5039584;28;20144;-72
2021/04/18 01:17:50;;;;;;;14.75;5.80;;;;;;;2.95;89.53;102680.81;5038891;28;20110;-72
2021/04/18 01:20:19;;;;;;;15.68;6.80;;;;;;;2.91;89.64;102681.56;5035294;28;20513;-74
2021/04/18 01:22:47;;;;;;;16.73;7.50;;;;;;;2.88;89.21;102681.47;5043753;28;20065;-72
2021/04/18 01:25:15;;;;;;;19.98;8.05;;;;;;;2.82;89.53;102681.28;5037537;28;20060;-72
2021/04/18 01:27:45;;;;;;;16.48;7.85;;;;;;;2.77;89.23;102681.16;5042520;28;20060;-72
2021/04/18 01:30:15;;;;;;;14.32;7.63;;;;;;;2.74;89.18;102677.53;5040706;28;20061;-72
2021/04/18 01:32:45;;;;;;;17.67;8.55;;;;;;;2.66;89.04;102679.97;5042425;28;20144;-72
2021/04/18 01:35:13;;;;;;;16.50;9.02;;;;;;;2.70;90.14;102673.03;5038123;28;20359;-73
2021/04/18 01:37:41;;;;;;;15.00;7.15;;;;;;;2.65;89.35;102674.63;5040361;28;20061;-72
2021/04/18 01:40:12;;;;;;;17.40;8.70;;;;;;;2.66;90.31;102669.41;5041356;28;20196;-75
2021/04/18 01:42:39;;;;;;;17.27;9.05;;;;;;;2.59;89.63;102675.34;5040146;28;20057;-75
2021/04/18 01:45:07;;;;;;;14.73;7.65;;;;;;;2.55;89.55;102679.59;5037845;28;20068;-74
2021/04/18 01:47:34;;;;;;;14.93;6.95;;;;;;;2.53;89.85;102676.03;5041583;28;20645;-74
2021/04/18 01:50:01;;;;;;;18.45;7.85;;;;;;;2.50;89.72;102672.41;5040998;28;20088;-74
2021/04/18 01:52:29;;;;;;;13.98;7.03;;;;;;;2.48;89.85;102677.66;5037224;28;20435;-74
2021/04/18 01:54:55;;;;;;;10.73;5.25;;;;;;;2.50;90.88;102675.94;5043207;28;20136;-73
2021/04/18 01:57:23;;;;;;;17.50;7.82;;;;;;;2.47;90.22;102677.59;5040731;28;20486;-74
2021/04/18 01:59:50;;;;;;;15.95;6.97;;;;;;;2.49;90.63;102675.94;5042530;28;20068;-75
2021/04/18 02:02:17;;;;;;;19.17;8.35;;;;;;;2.50;90.83;102677.69;5040253;28;20067;-75
2021/04/18 02:04:44;;;;;;;20.27;8.52;;;;;;;2.48;90.79;102675.00;5042633;28;20068;-75
2021/04/18 02:07:11;;;;;;;15.65;7.55;;;;;;;2.49;91.06;102673.28;5042596;28;20149;-75
2021/04/18 02:09:38;;;;;;;17.42;7.70;;;;;;;2.48;91.14;102679.41;5044640;28;20084;-75
2021/04/18 02:12:07;;;;;;;11.25;5.95;;;;;;;2.42;90.82;102675.72;5041016;28;20057;-74
2021/04/18 02:14:35;;;;;;;12.32;6.93;;;;;;;2.38;90.23;102667.66;5040424;28;20102;-74
2021/04/18 02:17:04;;;;;;;12.90;7.25;;;;;;;2.34;90.67;102666.69;5038694;28;20143;-74
2021/04/18 02:19:31;;;;;;;16.35;8.13;;;;;;;2.31;89.94;102661.31;5041231;28;20063;-73
2021/04/18 02:21:58;;;;;;;14.85;6.15;;;;;;;2.29;90.41;102667.41;5039812;28;20069;-74
2021/04/18 02:24:25;;;;;;;11.32;6.38;;;;;;;2.26;90.13;102660.28;5040705;28;20060;-74
2021/04/18 02:26:52;;;;;;;17.17;8.75;;;;;;;2.24;90.59;102665.50;5036756;28;20139;-74
2021/04/18 02:29:19;;;;;;;13.25;6.28;;;;;;;2.20;89.89;102657.47;5042468;28;20061;-74
2021/04/18 02:31:47;;;;;;;20.20;7.38;;;;;;;2.20;90.81;102662.72;5038602;28;20065;-71
2021/04/18 02:34:14;;;;;;;12.63;5.95;;;;;;;2.15;90.55;102665.22;5036581;28;20073;-71
2021/04/18 02:36:41;;;;;;;14.98;7.03;;;;;;;2.12;90.36;102662.47;5039545;28;20072;-71
2021/04/18 02:39:08;;;;;;;13.00;6.78;;;;;;;2.07;89.92;102671.09;5037957;28;20065;-71
2021/04/18 02:41:36;;;;;;;10.55;5.70;;;;;;;2.03;90.17;102664.84;5039207;28;20057;-71
2021/04/18 02:44:04;;;;;;;14.07;6.38;;;;;;;2.02;90.74;102670.94;5033910;28;20187;-71
2021/04/18 02:46:32;;;;;;;12.40;6.65;;;;;;;2.00;90.77;102668.25;5039105;28;20151;-72
2021/04/18 02:49:02;;;;;;;12.98;7.00;;;;;;;2.00;91.31;102676.16;5037793;28;20075;-72
2021/04/18 02:51:30;;;;;;;11.63;5.60;;;;;;;1.94;90.56;102675.03;5042371;28;20082;-72
2021/04/18 02:53:59;;;;;;;10.85;5.43;;;;;;;1.91;90.17;102670.59;5036650;28;20061;-71
2021/04/18 02:56:26;;;;;;;10.63;5.55;;;;;;;1.90;90.14;102668.78;5044507;28;20053;-71
2021/04/18 02:58:52;;;;;;;10.52;5.78;;;;;;;1.92;90.36;102669.72;5034012;28;20061;-71
2021/04/18 03:01:20;;;;;;;12.10;6.85;;;;;;;1.95;91.48;102668.94;5038428;28;20336;-73
2021/04/18 03:03:48;;;;;;;9.60;6.00;;;;;;;1.94;90.71;102656.63;5035990;28;20057;-75
2021/04/18 03:06:15;;;;;;;10.90;6.25;;;;;;;1.94;90.74;102662.81;5037167;28;20119;-75
2021/04/18 03:08:42;;;;;;;14.85;7.07;;;;;;;1.94;90.58;102657.53;5043392;28;20053;-75
2021/04/18 03:11:10;;;;;;;12.07;7.10;;;;;;;1.96;91.01;102658.47;5037707;28;20061;-76
2021/04/18 03:13:37;;;;;;;13.88;6.68;;;;;;;1.97;91.16;102654.97;5037963;28;20456;-75
2021/04/18 03:16:06;;;;;;;12.77;6.45;;;;;;;1.98;91.09;102656.78;5036807;28;20087;-76
2021/04/18 03:18:33;;;;;;;12.93;6.75;;;;;;;2.02;91.32;102660.41;5038059;28;20061;-76
2021/04/18 03:21:00;;;;;;;12.52;7.55;;;;;;;2.03;91.48;102656.94;5039380;28;20049;-75
2021/04/18 03:23:27;;;;;;;11.95;6.53;;;;;;;2.01;91.29;102654.25;5036586;28;20126;-73
2021/04/18 03:25:54;;;;;;;18.63;6.82;;;;;;;2.04;91.58;102656.97;5038306;28;20063;-73
2021/04/18 03:28:21;;;;;;;8.95;5.60;;;;;;;2.01;91.24;102651.63;5039730;28;20061;-74
2021/04/18 03:30:48;;;;;;;13.88;7.43;;;;;;;2.03;91.31;102646.41;5041555;28;20068;-74
2021/04/18 03:33:15;;;;;;;12.75;7.22;;;;;;;1.97;90.70;102646.19;5039414;28;20065;-73
2021/04/18 03:35:42;;;;;;;11.82;6.40;;;;;;;1.96;90.92;102647.03;5038298;28;20764;-74
2021/04/18 03:38:09;;;;;;;12.32;6.88;;;;;;;1.95;91.35;102643.50;5041579;28;20094;-74
2021/04/18 03:40:37;;;;;;;11.38;5.88;;;;;;;1.93;90.53;102646.94;5042928;28;20076;-76
2021/04/18 03:43:04;;;;;;;13.27;6.80;;;;;;;1.93;90.78;102650.47;5044856;28;20060;-75
2021/04/18 03:45:31;;;;;;;15.00;7.40;;;;;;;1.97;90.93;102640.91;5043984;28;20053;-73
2021/04/18 03:47:58;;;;;;;10.82;6.55;;;;;;;1.92;90.88;102635.50;5050524;28;20067;-74
2021/04/18 03:50:26;;;;;;;11.27;6.35;;;;;;;1.91;91.12;102638.06;5045799;28;20110;-74
2021/04/18 03:52:55;;;;;;;10.50;6.70;;;;;;;1.87;90.96;102637.09;5042270;28;20060;-74
2021/04/18 03:55:23;;;;;;;16.75;7.95;;;;;;;1.88;91.31;102638.00;5042845;28;20144;-74
2021/04/18 03:57:51;;;;;;;11.57;6.82;;;;;;;1.83;91.41;102638.72;5043945;28;20053;-75
2021/04/18 04:00:19;;;;;;;10.57;6.60;;;;;;;1.81;91.42;102640.44;5041513;28;20065;-72
2021/04/18 04:02:46;;;;;;;12.30;5.75;;;;;;;1.78;90.89;102636.81;5040347;28;20147;-72
2021/04/18 04:05:14;;;;;;;10.75;5.38;;;;;;;1.76;90.31;102638.50;5044165;28;20491;-72
2021/04/18 04:07:41;;;;;;;11.95;6.65;;;;;;;1.81;91.47;102637.78;5040648;28;20057;-71
2021/04/18 04:10:09;;;;;;;14.50;7.43;;;;;;;1.82;91.83;102634.31;5043308;28;20156;-72
2021/04/18 04:12:36;;;;;;;10.30;7.03;;;;;;;1.81;91.36;102642.19;5038521;28;20554;-72
2021/04/18 04:15:05;;;;;;;9.55;5.95;;;;;;;1.81;91.47;102634.28;5038331;28;20061;-72
2021/04/18 04:17:31;;;;;;;10.50;6.00;;;;;;;1.78;91.41;102635.06;5038518;28;20077;-71
2021/04/18 04:19:59;;;;;;;15.63;7.55;;;;;;;1.82;91.66;102634.31;5043586;28;20061;-71
2021/04/18 04:22:26;;;;;;;11.30;5.88;;;;;;;1.75;91.34;102636.69;5042567;28;20148;-74
2021/04/18 04:24:55;;;;;;;13.85;7.65;;;;;;;1.76;91.83;102646.41;5042936;28;20118;-75
2021/04/18 04:27:22;;;;;;;12.75;7.20;;;;;;;1.74;91.33;102640.16;5045179;28;20073;-74
2021/04/18 04:29:50;;;;;;;11.73;7.53;;;;;;;1.73;91.68;102641.91;5039768;28;20196;-74
2021/04/18 04:32:18;;;;;;;11.60;5.85;;;;;;;1.64;91.22;102641.63;5047363;28;20063;-71
2021/04/18 04:34:45;;;;;;;10.57;6.93;;;;;;;1.62;91.32;102641.56;5054223;28;20068;-73
2021/04/18 04:37:13;;;;;;;11.10;6.95;;;;;;;1.61;91.51;102650.28;5044471;28;20150;-72
2021/04/18 04:39:39;;;;;;;10.00;6.78;;;;;;;1.61;91.33;102654.66;5041440;28;20065;-71
2021/04/18 04:42:07;;;;;;;11.30;6.45;;;;;;;1.61;91.49;102654.66;5042546;28;20064;-73
2021/04/18 04:44:34;;;;;;;9.88;6.30;;;;;;;1.62;91.84;102656.47;5041910;28;20057;-72
2021/04/18 04:47:02;;;;;;;10.63;5.15;;;;;;;1.59;91.70;102651.09;5039179;28;20060;-72
2021/04/18 04:49:30;;;;;;;10.20;6.53;;;;;;;1.63;92.39;102653.84;5043695;28;20060;-74
2021/04/18 04:51:57;;;;;;;9.60;6.90;;;;;;;1.63;91.95;102653.84;5042629;28;20460;-75
2021/04/18 04:54:23;;;;;;;12.07;6.05;;;;;;;1.66;91.76;102660.97;5042019;28;20456;-74
2021/04/18 04:56:50;;;;;;;9.43;6.38;;;;;;;1.66;92.10;102653.97;5038053;28;20511;-76
2021/04/18 04:59:20;;;;;;;10.52;6.53;;;;;;;1.67;91.69;102654.88;5040956;28;20060;-74
2021/04/18 05:01:47;;;;;;;10.10;7.05;;;;;;;1.67;91.99;102661.03;5042578;28;20486;-75
2021/04/18 05:04:14;;;;;;;9.68;7.20;;;;;;;1.67;91.66;102661.03;5039694;28;20536;-75
2021/04/18 05:06:41;;;;;;;14.05;8.07;;;;;;;1.68;91.86;102662.81;5045520;28;20071;-75
2021/04/18 05:09:08;;;;;;;12.70;7.95;;;;;;;1.68;91.88;102659.28;5040620;28;20053;-73
2021/04/18 05:11:37;;;;;;;11.48;7.35;;;;;;;1.66;91.86;102655.72;5038495;28;20088;-73
2021/04/18 05:14:04;;;;;;;10.05;6.43;;;;;;;1.71;92.09;102654.13;5039369;28;20087;-76
2021/04/18 05:16:31;;;;;;;10.90;6.93;;;;;;;1.75;92.38;102669.16;5039006;28;20053;-73
2021/04/18 05:18:58;;;;;;;13.00;7.55;;;;;;;1.78;92.51;102671.03;5041471;28;20056;-73
2021/04/18 05:21:25;;;;;;;10.85;6.15;;;;;;;1.80;92.40;102672.84;5040278;28;20068;-71
2021/04/18 05:23:53;;;;;;;14.18;8.40;;;;;;;1.84;92.54;102680.03;5041888;28;20464;-72
2021/04/18 05:26:20;;;;;;;11.65;6.93;;;;;;;1.87;92.45;102671.31;5037842;28;20053;-77
2021/04/18 05:28:47;;;;;;;10.77;7.45;;;;;;;1.87;92.17;102676.56;5043029;28;20056;-75
2021/04/18 05:31:14;;;;;;;10.23;6.68;;;;;;;1.88;91.76;102673.13;5037767;28;20072;-75
2021/04/18 05:33:40;;;;;;;8.30;6.10;;;;;;;1.92;91.42;102675.00;5045509;28;20088;-76
2021/04/18 05:36:09;;;;;;;10.85;6.53;;;;;;;1.95;91.27;102674.22;5039077;28;20076;-75
2021/04/18 05:38:36;;;;;;;9.57;6.45;;;;;;;2.08;91.43;102675.50;5044810;28;20053;-76
2021/04/18 05:41:04;;;;;;;12.45;7.80;;;;;;;2.35;91.43;102675.47;5042800;28;20227;-77
2021/04/18 05:43:31;;;;;;;10.75;8.50;;;;;;;2.61;90.88;102676.28;5040919;28;20064;-76
2021/04/18 05:45:59;;;;;;;10.95;7.22;;;;;;;2.92;90.21;102678.06;5041121;28;20130;-75
2021/04/18 05:48:25;;;;;;;11.80;8.65;;;;;;;3.18;88.86;102680.56;5040991;28;20195;-76
2021/04/18 05:50:52;;;;;;;13.23;8.00;;;;;;;3.35;89.00;102673.09;5044732;28;20471;-76
2021/04/18 05:53:19;;;;;;;13.93;7.75;;;;;;;3.68;88.47;102673.09;5035248;28;20061;-74
2021/04/18 05:55:46;;;;;;;11.77;8.10;;;;;;;4.00;87.87;102680.03;5040838;28;20435;-75
2021/04/18 05:58:16;;;;;;;11.30;8.23;;;;;;;4.23;87.12;102680.59;5038382;28;20061;-75
2021/04/18 06:00:43;;;;;;;10.55;6.80;;;;;;;4.49;86.44;102678.53;5037941;28;20135;-76
2021/04/18 06:03:10;;;;;;;9.95;6.75;;;;;;;4.72;86.27;102673.78;5036498;28;20428;-75
2021/04/18 06:05:37;;;;;;;13.10;8.27;;;;;;;4.97;85.51;102680.47;5040265;28;20159;-77
2021/04/18 06:08:05;;;;;;;11.57;7.80;;;;;;;5.22;84.64;102667.72;5038829;28;20068;-76
2021/04/18 06:10:32;;;;;;;11.63;7.15;;;;;;;5.47;83.81;102668.19;5039948;28;20494;-77
2021/04/18 06:12:59;;;;;;;10.90;6.88;;;;;;;5.63;83.30;102661.41;5041104;28;20556;-77
2021/04/18 06:15:28;;;;;;;11.25;8.23;;;;;;;5.84;82.65;102671.47;5039981;28;20374;-78
2021/04/18 06:17:55;;;;;;;14.65;8.48;;;;;;;5.96;82.00;102671.72;5038827;28;20135;-76
2021/04/18 06:20:22;;;;;;;11.68;7.72;;;;;;;6.32;81.28;102665.22;5043008;28;20715;-75
2021/04/18 06:22:49;;;;;;;11.45;7.00;;;;;;;6.51;80.54;102659.28;5037919;28;20123;-76
2021/04/18 06:25:16;;;;;;;12.90;7.85;;;;;;;6.81;80.01;102663.22;5044863;28;20057;-75
2021/04/18 06:27:43;;;;;;;13.23;8.13;;;;;;;7.11;79.27;102661.81;5039518;28;20134;-76
2021/04/18 06:30:11;;;;;;;15.60;8.15;;;;;;;7.15;77.96;102660.97;5038573;28;20065;-76
2021/04/18 06:32:39;;;;;;;14.38;8.30;;;;;;;7.38;78.20;102660.31;5038719;28;20087;-76
2021/04/18 06:35:08;;;;;;;15.63;8.77;;;;;;;7.59;77.68;102656.97;5039489;28;20057;-76
2021/04/18 06:37:35;;;;;;;13.23;8.00;;;;;;;7.71;76.22;102659.72;5038947;28;20060;-79
2021/04/18 06:40:04;;;;;;;11.95;7.50;;;;;;;7.88;76.32;102659.88;5042193;28;20266;-77
2021/04/18 06:42:37;;;;;;;15.98;8.10;;;;;;;8.25;76.20;102656.63;5040245;28;20053;-73
2021/04/18 06:45:05;;;;;;;14.30;8.40;;;;;;;8.40;75.17;102660.25;5037770;28;20467;-73
2021/04/18 06:47:34;;;;;;;16.33;9.15;;;;;;;8.52;74.33;102656.81;5041704;28;20053;-73
2021/04/18 06:50:03;;;;;;;15.23;8.90;;;;;;;8.66;72.77;102656.00;5037408;28;20126;-73
2021/04/18 06:52:32;;;;;;;17.23;9.93;;;;;;;8.92;74.22;102656.09;5039418;28;20068;-73
2021/04/18 06:54:59;;;;;;;16.63;9.30;;;;;;;8.95;73.13;102651.66;5038621;28;20067;-76
2021/04/18 06:57:26;;;;;;;14.15;9.18;;;;;;;8.83;71.48;102654.28;5036881;28;20065;-72
2021/04/18 06:59:53;;;;;;;11.75;6.63;;;;;;;8.48;71.25;102660.34;5037406;28;20077;-75
2021/04/18 07:02:27;;;;;;;10.93;5.53;;;;;;;8.57;72.46;102656.84;5039591;28;20072;-77
2021/04/18 07:05:00;;;;;;;10.98;6.38;;;;;;;8.18;72.35;102663.66;5037365;28;20460;-75
2021/04/18 07:07:30;;;;;;;10.15;5.95;;;;;;;8.07;73.22;102660.94;5041172;28;20334;-72
2021/04/18 07:09:57;;;;;;;11.02;6.60;;;;;;;8.05;72.85;102657.34;5038986;28;20588;-75
2021/04/18 07:12:25;;;;;;;9.32;5.50;;;;;;;7.93;72.31;102660.81;5042057;28;20119;-76
2021/04/18 07:14:52;;;;;;;11.05;5.03;;;;;;;7.83;72.69;102665.19;5045042;28;20080;-76
2021/04/18 07:17:19;;;;;;;10.68;5.75;;;;;;;7.30;72.96;102668.19;5043422;28;20231;-75
2021/04/18 07:19:50;;;;;;;8.65;5.03;;;;;;;8.11;71.58;102673.38;5045276;28;20053;-72
2021/04/18 07:22:18;;;;;;;10.48;5.57;;;;;;;9.04;70.78;102653.50;5043657;28;20060;-75
2021/04/18 07:24:50;;;;;;;9.88;5.75;;;;;;;9.44;67.86;102650.91;5046160;28;20095;-75
2021/04/18 07:27:17;;;;;;;12.05;5.55;;;;;;;9.45;66.51;102658.03;5045268;28;20749;-74
2021/04/18 07:29:53;;;;;;;10.73;6.05;;;;;;;10.19;66.93;102654.47;5047004;28;20064;-75
2021/04/18 07:32:23;;;;;;;10.93;5.50;;;;;;;9.08;66.40;102659.72;5044188;28;20053;-77
2021/04/18 07:34:51;;;;;;;9.95;6.22;;;;;;;9.31;68.58;102651.78;5044369;28;20098;-76
2021/04/18 07:37:19;;;;;;;10.90;5.40;;;;;;;8.81;68.24;102652.53;5040575;28;20160;-76
2021/04/18 07:39:53;;;;;;;9.82;5.68;;;;;;;8.12;69.60;102659.19;5043812;28;20449;-76
2021/04/18 07:42:42;;;;;;;11.30;6.07;;;;;;;7.81;70.68;102661.59;5043090;28;20072;-75
2021/04/18 07:45:12;;;;;;;11.10;5.60;;;;;;;8.35;69.99;102653.13;5038720;28;20157;-75
2021/04/18 07:47:41;;;;;;;9.15;4.90;;;;;;;8.81;68.64;102649.88;5041163;28;20474;-75
2021/04/18 07:50:11;;;;;;;9.23;5.05;;;;;;;8.90;68.12;102632.13;5042751;28;20049;-72
2021/04/18 07:52:41;;;;;;;9.15;5.10;;;;;;;8.44;67.88;102641.69;5038632;28;20119;-72
2021/04/18 07:55:11;;;;;;;10.23;4.75;;;;;;;9.48;66.99;102636.72;5041147;28;20131;-73
2021/04/18 07:57:39;;;;;;;10.35;5.10;;;;;;;9.30;64.29;102632.25;5041013;28;20065;-72
2021/04/18 08:00:07;;;;;;;8.95;4.97;;;;;;;9.86;63.92;102627.84;5041844;28;20053;-72
2021/04/18 08:02:35;;;;;;;9.18;5.00;;;;;;;9.91;63.53;102623.38;5040259;28;20557;-72
2021/04/18 08:05:03;;;;;;;9.00;4.88;;;;;;;10.06;63.30;102619.81;5042235;28;20096;-72
2021/04/18 08:07:30;;;;;;;11.68;4.95;;;;;;;9.96;62.78;102626.06;5041875;28;20063;-76
2021/04/18 08:10:22;;;;;;;9.63;4.85;;;;;;;10.64;62.06;102620.56;5042010;28;20057;-75
2021/04/18 08:13:07;;;;;;;9.63;4.45;;;;;;;11.26;59.96;102617.59;5040391;28;20056;-76
2021/04/18 08:15:37;;;;;;;8.07;4.85;;;;;;;11.20;59.86;102613.16;5042091;28;20061;-74
2021/04/18 08:18:12;;;;;;;11.77;4.78;;;;;;;11.62;59.61;102616.41;5041920;28;20065;-75
2021/04/18 08:20:41;;;;;;;9.90;4.72;;;;;;;12.01;57.50;102621.47;5040988;28;20061;-74
2021/04/18 08:23:10;;;;;;;9.50;4.18;;;;;;;11.74;58.63;102623.44;5044286;28;20063;-74
2021/04/18 08:25:59;;;;;;;8.98;4.82;;;;;;;11.31;57.89;102619.31;5043881;28;20049;-75
2021/04/18 08:28:25;;;;;;;8.52;4.22;;;;;;;11.68;57.51;102627.06;5043637;28;20148;-74
2021/04/18 08:31:05;;;;;;;9.50;4.97;;;;;;;11.99;56.98;102628.63;5037038;28;20499;-74
2021/04/18 08:33:47;;;;;;;9.25;4.30;;;;;;;11.72;57.82;102627.94;5041542;28;20058;-74
2021/04/18 08:36:17;;;;;;;7.07;4.30;;;;;;;11.71;57.16;102628.81;5041682;28;20061;-74
2021/04/18 08:38:46;;;;;;;8.38;4.15;;;;;;;11.38;57.73;102625.50;5043564;28;20049;-75
2021/04/18 08:41:17;;;;;;;8.23;4.35;;;;;;;10.98;57.37;102626.66;5043525;28;20072;-76
2021/04/18 08:43:46;;;;;;;7.18;4.05;;;;;;;10.88;57.85;102624.00;5040925;28;20076;-74
2021/04/18 08:46:13;;;;;;;10.40;5.85;;;;;;;10.25;60.33;102620.66;5040842;28;20061;-74
2021/04/18 08:48:40;;;;;;;8.75;4.70;;;;;;;10.48;58.83;102619.75;5042611;28;20063;-74
2021/04/18 08:51:10;;;;;;;8.40;4.53;;;;;;;11.69;57.07;102615.47;5041421;28;20061;-75
2021/04/18 08:53:53;;;;;;;10.35;4.40;;;;;;;11.91;55.02;102618.84;5041381;28;20068;-76
2021/04/18 08:56:22;;;;;;;8.18;3.95;;;;;;;12.02;55.05;102608.06;5039057;28;20053;-74
2021/04/18 08:58:50;;;;;;;8.63;4.90;;;;;;;12.19;53.42;102613.25;5042275;28;20084;-74
2021/04/18 09:01:18;;;;;;;9.00;4.40;;;;;;;11.57;55.56;102607.53;5041560;28;20368;-72
2021/04/18 09:03:59;;;;;;;10.82;4.85;;;;;;;12.18;55.78;102611.47;5041225;28;20295;-75
2021/04/18 09:06:34;;;;;;;8.85;4.68;;;;;;;12.60;53.04;102603.84;5037485;28;20064;-74
2021/04/18 09:09:04;;;;;;;12.05;6.05;;;;;;;11.65;56.71;102611.03;5040439;28;20060;-73
2021/04/18 09:11:37;;;;;;;9.15;4.72;;;;;;;12.49;53.27;102609.31;5038580;28;20395;-74
2021/04/18 09:14:05;;;;;;;8.77;4.70;;;;;;;12.04;54.27;102606.25;5039681;28;20080;-74
2021/04/18 09:16:34;;;;;;;7.90;4.47;;;;;;;11.96;53.14;102614.34;5042760;28;20060;-71
2021/04/18 09:19:28;;;;;;;8.50;5.00;;;;;;;11.48;54.14;102613.84;5037768;28;20060;-71
2021/04/18 09:22:05;;;;;;;8.35;4.28;;;;;;;12.11;53.20;102620.47;5039478;28;20095;-72
2021/04/18 09:24:34;;;;;;;8.77;4.75;;;;;;;12.96;49.93;102609.63;5040147;28;20139;-74
2021/04/18 09:27:05;;;;;;;8.52;3.90;;;;;;;13.67;50.04;102613.03;5038461;28;20045;-74
2021/04/18 09:29:34;;;;;;;8.57;4.50;;;;;;;14.09;48.80;102603.34;5039478;28;20122;-76
2021/04/18 09:32:07;;;;;;;8.60;4.30;;;;;;;13.64;48.61;102609.50;5038759;28;20122;-74
2021/04/18 09:34:36;;;;;;;8.57;4.77;;;;;;;13.39;48.32;102609.00;5041851;28;20344;-74
2021/04/18 09:37:06;;;;;;;9.27;4.57;;;;;;;14.10;49.47;102599.75;5037307;28;20068;-74
2021/04/18 09:39:35;;;;;;;9.98;5.20;;;;;;;14.15;48.33;102603.22;5040702;28;20083;-75
2021/04/18 09:42:05;;;;;;;11.32;4.97;;;;;;;13.86;47.77;102598.41;5041463;28;20067;-74
2021/04/18 09:44:37;;;;;;;7.47;4.55;;;;;;;14.28;48.50;102595.81;5039086;28;20140;-74
2021/04/18 09:47:07;;;;;;;9.57;4.70;;;;;;;14.80;47.59;102599.25;5054658;28;20061;-75
2021/04/18 09:49:46;;;;;;;8.68;4.88;;;;;;;14.23;47.57;102594.13;5041547;28;20071;-74
2021/04/18 09:52:23;;;;;;;11.88;5.82;;;;;;;13.44;48.80;102588.38;5039893;28;20060;-74
2021/04/18 09:54:50;;;;;;;10.27;5.03;;;;;;;13.35;49.95;102593.91;5040873;28;20067;-74
2021/04/18 09:57:27;;;;;;;8.32;4.63;;;;;;;14.32;48.16;102585.88;5037924;28;20326;-74
2021/04/18 10:00:01;;;;;;;9.00;4.63;;;;;;;14.84;47.44;102584.81;5042187;28;20450;-74
2021/04/18 10:02:28;;;;;;;10.27;5.22;;;;;;;14.00;47.93;102584.75;5039589;28;20072;-75
2021/04/18 10:05:08;;;;;;;9.77;5.57;;;;;;;13.85;47.08;102591.25;5040473;28;20102;-74
2021/04/18 10:07:35;;;;;;;10.93;5.32;;;;;;;12.76;49.64;102595.63;5038740;28;20067;-76
2021/04/18 10:10:03;;;;;;;10.70;5.72;;;;;;;12.96;49.44;102598.03;5039141;28;20057;-74
2021/04/18 10:12:45;;;;;;;10.02;4.97;;;;;;;13.91;48.39;102604.59;5039534;28;20314;-74
2021/04/18 10:15:12;;;;;;;8.27;4.70;;;;;;;14.17;47.19;102587.09;5040521;28;20472;-74
2021/04/18 10:17:38;;;;;;;9.45;4.53;;;;;;;15.16;45.91;102590.41;5037712;28;20138;-76
2021/04/18 10:20:07;;;;;;;8.45;4.28;;;;;;;14.61;45.01;102585.34;5038365;28;20064;-74
2021/04/18 10:22:34;;;;;;;8.23;4.30;;;;;;;14.72;43.68;102590.47;5039840;28;20065;-73
2021/04/18 10:25:07;;;;;;;8.07;4.47;;;;;;;15.06;44.56;102581.66;5038541;28;20052;-74
2021/04/18 10:27:35;;;;;;;7.22;4.00;;;;;;;15.24;43.26;102577.66;5038075;28;20071;-74
2021/04/18 10:30:06;;;;;;;11.00;6.57;;;;;;;15.21;43.17;102584.00;5038248;28;20319;-70
2021/04/18 10:32:33;;;;;;;7.93;4.05;;;;;;;14.71;44.57;102584.22;5034021;28;20503;-72
2021/04/18 10:35:00;;;;;;;8.75;4.80;;;;;;;14.51;45.89;102573.00;5036096;28;20110;-72
2021/04/18 10:37:28;;;;;;;8.13;4.38;;;;;;;14.99;43.61;102571.97;5041317;28;20053;-72
2021/04/18 10:39:55;;;;;;;6.72;3.75;;;;;;;15.32;44.82;102571.19;5039180;28;20460;-72
2021/04/18 10:42:23;;;;;;;5.75;3.88;;;;;;;15.11;42.61;102566.31;5038011;28;20053;-72
2021/04/18 10:44:51;;;;;;;9.32;4.32;;;;;;;14.60;43.89;102564.75;5037040;28;20129;-73
2021/04/18 10:47:18;;;;;;;7.47;4.35;;;;;;;14.85;42.97;102562.44;5040229;28;20061;-72
2021/04/18 10:49:49;;;;;;;9.07;4.53;;;;;;;15.80;42.98;102569.09;5041825;28;20327;-71
2021/04/18 10:52:16;;;;;;;8.75;4.32;;;;;;;15.94;41.14;102561.53;5038470;28;20791;-72
2021/04/18 10:54:43;;;;;;;7.78;4.50;;;;;;;15.59;40.84;102565.13;5043480;28;20100;-72
2021/04/18 10:57:10;;;;;;;7.78;4.18;;;;;;;14.69;44.09;102561.91;5036467;28;20088;-72
2021/04/18 10:59:37;;;;;;;8.38;4.30;;;;;;;15.42;43.02;102565.56;5041799;28;20071;-73
2021/04/18 11:02:05;;;;;;;7.07;4.32;;;;;;;14.69;43.76;102569.03;5039846;28;20476;-71
2021/04/18 11:04:31;;;;;;;8.05;4.05;;;;;;;15.46;44.11;102565.44;5038201;28;20064;-72
2021/04/18 11:06:59;;;;;;;7.63;3.97;;;;;;;15.31;42.88;102569.41;5039217;28;20059;-71
2021/04/18 11:09:25;;;;;;;7.80;4.20;;;;;;;15.42;43.47;102560.19;5039940;28;20057;-71
2021/04/18 11:11:52;;;;;;;10.63;4.60;;;;;;;15.67;41.43;102564.00;5035974;28;20178;-71
2021/04/18 11:14:19;;;;;;;7.18;3.78;;;;;;;16.21;40.31;102562.59;5038238;28;20370;-72
2021/04/18 11:16:46;;;;;;;8.07;4.13;;;;;;;16.00;40.81;102557.78;5039109;28;20061;-75
2021/04/18 11:19:14;;;;;;;7.50;3.92;;;;;;;15.54;41.96;102553.59;5038181;28;20144;-76
2021/04/18 11:21:41;;;;;;;7.32;4.03;;;;;;;15.57;41.07;102553.53;5039307;28;20065;-75
2021/04/18 11:24:09;;;;;;;8.52;4.65;;;;;;;15.54;41.61;102550.91;5038896;28;20063;-76
2021/04/18 11:26:36;;;;;;;8.43;4.70;;;;;;;14.90;43.60;102552.44;5037246;28;20140;-78
2021/04/18 11:29:03;;;;;;;9.85;4.50;;;;;;;15.04;43.70;102557.50;5039685;28;20155;-75
2021/04/18 11:31:31;;;;;;;8.70;4.50;;;;;;;14.28;45.09;102550.16;5038739;28;20148;-71